createdAt,value
2019-01-10T00:02:17.027Z,1.95
2019-01-10T00:04:45.924Z,4.05
2019-01-10T00:07:15.036Z,2.05
2019-01-10T00:09:43.913Z,1.67
2019-01-10T00:12:12.927Z,1.98
2019-01-10T00:14:42.028Z,0.80
2019-01-10T00:17:11.102Z,1.60
2019-01-10T00:19:40.132Z,3.05
2019-01-10T00:22:09.196Z,1.27
2019-01-10T00:24:38.343Z,0.85
2019-01-10T00:27:07.398Z,2.05
2019-01-10T00:29:36.373Z,2.95
2019-01-10T00:32:05.503Z,3.35
2019-01-10T00:34:34.440Z,1.57
2019-01-10T00:37:03.457Z,2.12
2019-01-10T00:39:32.365Z,2.55
2019-01-10T00:42:01.239Z,0.95
2019-01-10T00:44:30.168Z,4.10
2019-01-10T00:46:58.964Z,2.92
2019-01-10T00:49:27.987Z,2.27
2019-01-10T00:51:56.923Z,1.57
2019-01-10T00:54:25.830Z,2.15
2019-01-10T00:56:54.759Z,4.12
2019-01-10T00:59:23.665Z,4.85
2019-01-10T01:01:52.597Z,2.80
2019-01-10T01:04:21.511Z,2.95
2019-01-10T01:06:50.362Z,2.02
2019-01-10T01:09:19.274Z,1.57
2019-01-10T01:11:48.155Z,1.85
2019-01-10T01:14:17.831Z,2.80
2019-01-10T01:16:46.706Z,4.22
2019-01-10T01:19:15.592Z,2.08
2019-01-10T01:21:44.441Z,3.02
2019-01-10T01:24:14.227Z,1.02
2019-01-10T01:26:43.179Z,4.42
2019-01-10T01:29:12.077Z,2.47
2019-01-10T01:31:40.939Z,1.40
2019-01-10T01:34:09.866Z,2.22
2019-01-10T01:36:38.663Z,1.77
2019-01-10T01:39:08.406Z,1.82
2019-01-10T01:41:37.344Z,2.75
2019-01-10T01:44:06.359Z,1.47
2019-01-10T01:46:35.233Z,2.25
2019-01-10T01:49:04.371Z,3.72
2019-01-10T01:51:33.247Z,1.98
2019-01-10T01:54:02.155Z,1.75
2019-01-10T01:56:31.123Z,1.17
2019-01-10T01:59:00.051Z,1.42
2019-01-10T02:01:29.011Z,2.52
2019-01-10T02:03:57.872Z,2.67
2019-01-10T02:06:26.683Z,2.08
2019-01-10T02:08:57.783Z,5.65
2019-01-10T02:11:26.327Z,0.93
2019-01-10T02:13:55.238Z,1.22
2019-01-10T02:16:24.217Z,2.70
2019-01-10T02:18:53.146Z,1.17
2019-01-10T02:21:22.071Z,4.62
2019-01-10T02:23:50.982Z,1.50
2019-01-10T02:26:19.856Z,1.80
2019-01-10T02:28:48.650Z,2.45
2019-01-10T02:31:17.537Z,1.40
2019-01-10T02:33:46.451Z,0.60
2019-01-10T02:36:15.279Z,1.62
2019-01-10T02:38:44.300Z,1.52
2019-01-10T02:41:13.090Z,1.80
2019-01-10T02:43:41.971Z,1.15
2019-01-10T02:46:10.939Z,1.75
2019-01-10T02:48:39.796Z,2.72
2019-01-10T02:51:08.768Z,0.88
2019-01-10T02:53:37.681Z,1.55
2019-01-10T02:56:06.818Z,2.67
2019-01-10T02:58:35.803Z,1.47
2019-01-10T03:01:04.750Z,6.55
2019-01-10T03:03:33.524Z,3.17
2019-01-10T03:06:02.400Z,1.98
2019-01-10T03:08:31.285Z,1.65
2019-01-10T03:11:00.157Z,0.90
2019-01-10T03:13:36.493Z,2.52
2019-01-10T03:15:59.737Z,3.00
2019-01-10T03:18:28.606Z,1.17
2019-01-10T03:20:57.499Z,3.20
2019-01-10T03:23:26.271Z,1.25
2019-01-10T03:25:55.247Z,2.10
2019-01-10T03:28:24.055Z,2.45
2019-01-10T03:30:53.058Z,1.55
2019-01-10T03:33:21.960Z,2.12
2019-01-10T03:35:50.884Z,5.58
2019-01-10T03:38:19.684Z,2.65
2019-01-10T03:40:48.687Z,1.80
2019-01-10T03:43:17.611Z,1.50
2019-01-10T03:45:46.579Z,3.20
2019-01-10T03:48:15.371Z,6.78
2019-01-10T03:50:44.288Z,0.95
2019-01-10T03:53:13.177Z,0.93
2019-01-10T03:55:42.341Z,3.33
2019-01-10T03:58:11.295Z,1.90
2019-01-10T04:00:40.295Z,1.07
2019-01-10T04:03:09.277Z,1.42
2019-01-10T04:05:38.172Z,2.37
2019-01-10T04:08:07.129Z,1.75
2019-01-10T04:10:36.047Z,0.98
2019-01-10T04:13:05.039Z,3.00
2019-01-10T04:15:34.024Z,2.87
2019-01-10T04:18:03.024Z,0.90
2019-01-10T04:20:31.861Z,2.92
2019-01-10T04:23:00.849Z,2.80
2019-01-10T04:25:29.763Z,3.22
2019-01-10T04:27:58.671Z,2.27
2019-01-10T04:30:27.581Z,2.08
2019-01-10T04:32:56.374Z,1.07
2019-01-10T04:35:25.503Z,1.60
2019-01-10T04:37:54.573Z,1.70
2019-01-10T04:40:23.812Z,1.40
2019-01-10T04:42:52.747Z,1.95
2019-01-10T04:45:21.662Z,1.55
2019-01-10T04:47:50.524Z,1.75
2019-01-10T04:50:19.488Z,4.10
2019-01-10T04:52:48.460Z,2.25
2019-01-10T04:55:17.426Z,2.60
2019-01-10T04:57:46.469Z,2.83
2019-01-10T05:00:24.078Z,1.32
2019-01-10T05:02:52.953Z,2.95
2019-01-10T05:05:22.123Z,1.95
2019-01-10T05:07:51.115Z,1.85
2019-01-10T05:10:20.116Z,0.98
2019-01-10T05:12:49.047Z,1.72
2019-01-10T05:15:17.955Z,1.62
2019-01-10T05:17:46.742Z,2.77
2019-01-10T05:20:17.579Z,2.85
2019-01-10T05:22:46.712Z,2.80
2019-01-10T05:25:15.795Z,2.27
2019-01-10T05:27:44.775Z,3.58
2019-01-10T05:30:24.676Z,1.15
2019-01-10T05:32:54.658Z,3.15
2019-01-10T05:35:23.718Z,3.20
2019-01-10T05:37:52.623Z,1.12
2019-01-10T05:40:21.522Z,3.08
2019-01-10T05:42:50.456Z,1.47
2019-01-10T05:45:19.628Z,3.45
2019-01-10T05:47:48.582Z,1.20
2019-01-10T05:50:18.174Z,1.65
2019-01-10T05:52:47.380Z,5.67
2019-01-10T05:55:21.120Z,2.35
2019-01-10T05:57:49.947Z,1.95
2019-01-10T06:00:27.102Z,2.30
2019-01-10T06:02:56.264Z,0.95
2019-01-10T06:05:25.252Z,1.12
2019-01-10T06:07:54.235Z,2.05
2019-01-10T06:10:25.248Z,1.57
2019-01-10T06:12:54.071Z,2.00
2019-01-10T06:15:23.485Z,2.08
2019-01-10T06:17:52.309Z,1.45
2019-01-10T06:20:21.838Z,3.75
2019-01-10T06:22:56.386Z,2.25
2019-01-10T06:25:25.216Z,2.30
2019-01-10T06:27:54.826Z,1.42
2019-01-10T06:30:24.581Z,1.15
2019-01-10T06:32:53.524Z,1.77
2019-01-10T06:35:22.450Z,1.82
2019-01-10T06:37:51.728Z,3.15
2019-01-10T06:40:21.787Z,2.65
2019-01-10T06:42:50.695Z,5.00
2019-01-10T06:45:19.573Z,2.02
2019-01-10T06:47:48.578Z,1.50
2019-01-10T06:50:17.921Z,4.03
2019-01-10T06:52:46.917Z,1.12
2019-01-10T06:55:15.951Z,4.05
2019-01-10T06:57:44.742Z,2.25
2019-01-10T07:00:19.752Z,4.10
2019-01-10T07:02:49.140Z,1.52
2019-01-10T07:05:18.195Z,2.98
2019-01-10T07:07:55.833Z,2.00
2019-01-10T07:10:20.759Z,10.88
2019-01-10T07:12:49.900Z,5.87
2019-01-10T07:15:18.948Z,2.35
2019-01-10T07:17:47.860Z,7.42
2019-01-10T07:20:17.359Z,6.30
2019-01-10T07:22:48.392Z,11.20
2019-01-10T07:25:17.465Z,4.33
2019-01-10T07:27:46.636Z,6.20
2019-01-10T07:30:21.977Z,5.50
2019-01-10T07:32:50.823Z,11.73
2019-01-10T07:35:19.722Z,4.22
2019-01-10T07:37:55.940Z,3.80
2019-01-10T07:40:25.539Z,7.03
2019-01-10T07:42:54.620Z,6.20
2019-01-10T07:45:25.202Z,10.15
2019-01-10T07:47:54.485Z,9.38
2019-01-10T07:50:32.716Z,6.90
2019-01-10T07:53:02.262Z,4.03
2019-01-10T07:55:34.179Z,8.60
2019-01-10T07:58:03.278Z,9.55
2019-01-10T08:00:32.263Z,8.93
2019-01-10T08:03:01.200Z,11.20
2019-01-10T08:05:30.152Z,6.53
2019-01-10T08:07:59.293Z,11.55
2019-01-10T08:10:28.383Z,11.73
2019-01-10T08:12:57.393Z,7.85
2019-01-10T08:15:26.324Z,8.65
2019-01-10T08:17:55.244Z,10.88
2019-01-10T08:20:24.201Z,11.00
2019-01-10T08:22:53.160Z,8.78
2019-01-10T08:25:21.978Z,9.65
2019-01-10T08:27:50.938Z,8.45
2019-01-10T08:30:22.275Z,11.30
2019-01-10T08:32:51.273Z,13.75
2019-01-10T08:35:23.017Z,9.90
2019-01-10T08:37:52.114Z,6.08
2019-01-10T08:40:21.131Z,8.05
2019-01-10T08:42:50.104Z,6.65
2019-01-10T08:45:21.837Z,10.50
2019-01-10T08:47:51.989Z,8.25
2019-01-10T08:50:23.329Z,8.20
2019-01-10T08:52:52.625Z,7.72
2019-01-10T08:55:21.660Z,8.78
2019-01-10T08:57:50.834Z,7.28
2019-01-10T09:00:23.646Z,7.30
2019-01-10T09:02:52.900Z,9.13
2019-01-10T09:05:26.141Z,8.63
2019-01-10T09:07:55.275Z,10.80
2019-01-10T09:10:32.176Z,10.43
2019-01-10T09:13:01.231Z,13.93
2019-01-10T09:15:34.661Z,7.78
2019-01-10T09:18:01.002Z,16.02
2019-01-10T09:20:33.052Z,9.10
2019-01-10T09:23:02.156Z,9.90
2019-01-10T09:25:34.660Z,8.40
2019-01-10T09:28:03.652Z,9.63
2019-01-10T09:30:35.493Z,6.10
2019-01-10T09:33:27.830Z,9.00
2019-01-10T09:35:56.946Z,13.45
2019-01-10T09:38:25.991Z,8.00
2019-01-10T09:40:55.328Z,6.80
2019-01-10T09:43:24.527Z,8.88
2019-01-10T09:45:53.663Z,8.23
2019-01-10T09:48:22.894Z,6.37
2019-01-10T09:50:52.298Z,4.78
2019-01-10T09:53:21.293Z,10.20
2019-01-10T09:55:50.491Z,10.28
2019-01-10T09:58:19.853Z,6.70
2019-01-10T10:00:48.859Z,8.95
2019-01-10T10:03:17.867Z,12.55
2019-01-10T10:05:46.807Z,7.35
2019-01-10T10:08:15.735Z,6.12
2019-01-10T10:10:44.875Z,10.20
2019-01-10T10:13:14.547Z,8.70
2019-01-10T10:15:52.056Z,8.75
2019-01-10T10:18:14.643Z,7.53
2019-01-10T10:20:43.652Z,10.00
2019-01-10T10:23:12.531Z,9.30
2019-01-10T10:25:41.384Z,5.65
2019-01-10T10:28:10.326Z,6.78
2019-01-10T10:30:39.879Z,7.20
2019-01-10T10:33:08.799Z,3.83
2019-01-10T10:35:37.968Z,4.35
2019-01-10T10:38:07.011Z,6.33
2019-01-10T10:40:35.863Z,3.10
2019-01-10T10:43:05.031Z,4.28
2019-01-10T10:45:34.394Z,7.70
2019-01-10T10:48:03.290Z,6.87
2019-01-10T10:50:32.202Z,11.60
2019-01-10T10:53:02.977Z,5.80
2019-01-10T10:55:32.393Z,3.70
2019-01-10T10:58:01.630Z,8.00
2019-01-10T11:00:31.206Z,8.00
2019-01-10T11:03:00.598Z,7.42
2019-01-10T11:05:29.561Z,4.87
2019-01-10T11:07:58.506Z,7.65
2019-01-10T11:10:30.560Z,6.25
2019-01-10T11:13:03.377Z,8.50
2019-01-10T11:19:01.916Z,5.87
2019-01-10T11:21:30.848Z,10.18
2019-01-10T11:24:20.623Z,5.80
2019-01-10T11:27:08.816Z,4.35
2019-01-10T11:32:35.496Z,6.28
2019-01-10T11:35:21.181Z,13.05
2019-01-10T11:37:50.211Z,6.20
2019-01-10T11:40:29.005Z,5.45
2019-01-10T11:42:57.963Z,7.28
2019-01-10T11:45:28.117Z,6.58
2019-01-10T11:47:57.236Z,10.55
2019-01-10T11:50:45.950Z,4.75
2019-01-10T11:53:17.995Z,5.33
2019-01-10T11:56:15.378Z,5.85
2019-01-10T11:59:03.088Z,4.87
2019-01-10T12:01:56.178Z,5.60
2019-01-10T12:04:48.488Z,6.72
2019-01-10T12:10:52.865Z,10.95
2019-01-10T12:14:50.923Z,5.53
2019-01-10T12:21:56.897Z,7.08
2019-01-10T12:24:31.784Z,7.15
2019-01-10T12:27:53.883Z,3.60
2019-01-10T12:30:34.534Z,9.53
2019-01-10T12:36:14.265Z,4.22
2019-01-10T12:39:24.769Z,2.60
2019-01-10T12:45:42.224Z,3.27
2019-01-10T12:48:37.499Z,7.97
2019-01-10T12:51:42.430Z,6.53
2019-01-10T12:54:49.358Z,4.95
2019-01-10T13:00:54.447Z,6.95
2019-01-10T13:03:30.716Z,4.85
2019-01-10T13:06:22.558Z,7.95
2019-01-10T13:09:22.061Z,5.42
2019-01-10T13:14:45.782Z,4.37
2019-01-10T13:17:25.315Z,3.80
2019-01-10T13:20:50.022Z,8.55
2019-01-10T13:27:52.252Z,5.00
2019-01-10T13:30:24.089Z,11.30
2019-01-10T13:32:56.403Z,7.08
2019-01-10T13:35:27.077Z,5.87
2019-01-10T13:37:57.395Z,8.90
2019-01-10T13:40:26.647Z,7.45
2019-01-10T13:43:54.816Z,5.20
2019-01-10T13:47:07.837Z,6.80
2019-01-10T13:50:37.318Z,4.70
2019-01-10T13:56:55.458Z,4.42
2019-01-10T13:59:41.813Z,8.38
2019-01-10T14:02:21.871Z,6.12
2019-01-10T14:05:37.442Z,10.68
2019-01-10T14:29:26.761Z,3.83
2019-01-10T14:32:34.352Z,6.03
2019-01-10T14:35:41.873Z,4.12
2019-01-10T14:42:49.132Z,6.67
2019-01-10T14:45:41.920Z,3.52
2019-01-10T14:52:45.042Z,10.00
2019-01-10T14:55:49.565Z,7.95
2019-01-10T14:58:36.858Z,3.95
2019-01-10T15:01:30.924Z,6.42
2019-01-10T15:15:12.133Z,9.88
2019-01-10T15:25:14.143Z,11.20
2019-01-10T15:38:46.554Z,9.53
2019-01-10T15:42:36.427Z,11.83
2019-01-10T15:46:04.564Z,15.10
2019-01-10T15:49:20.546Z,12.40
2019-01-10T15:52:18.960Z,13.90
2019-01-10T15:55:01.738Z,12.50
2019-01-10T15:57:32.008Z,10.95
2019-01-10T16:04:07.506Z,17.10
2019-01-10T16:06:41.835Z,10.00
2019-01-10T16:09:18.653Z,13.85
2019-01-10T16:11:51.636Z,10.60
2019-01-10T16:14:21.216Z,10.48
2019-01-10T16:17:05.366Z,8.70
2019-01-10T16:19:34.550Z,8.35
2019-01-10T16:22:05.952Z,14.35
2019-01-10T16:24:39.276Z,10.68
2019-01-10T16:27:12.687Z,8.93
2019-01-10T16:32:33.724Z,10.15
2019-01-10T16:35:02.995Z,12.33
2019-01-10T16:37:32.370Z,8.75
2019-01-10T16:40:05.660Z,10.40
2019-01-10T16:43:11.988Z,12.30
2019-01-10T16:45:40.356Z,11.15
2019-01-10T16:48:13.478Z,9.00
2019-01-10T16:50:44.880Z,10.30
2019-01-10T16:53:17.657Z,6.30
2019-01-10T16:55:55.654Z,7.72
2019-01-10T16:58:30.523Z,6.53
2019-01-10T17:01:12.627Z,6.92
2019-01-10T17:04:01.058Z,5.30
2019-01-10T17:06:30.554Z,9.13
2019-01-10T17:08:59.787Z,8.75
2019-01-10T17:11:32.320Z,7.03
2019-01-10T17:14:01.468Z,8.70
2019-01-10T17:16:30.564Z,7.33
2019-01-10T17:19:13.893Z,13.62
2019-01-10T17:22:06.480Z,10.85
2019-01-10T17:24:39.186Z,9.60
2019-01-10T17:27:24.196Z,5.12
2019-01-10T17:29:51.479Z,8.85
2019-01-10T17:32:25.465Z,5.37
2019-01-10T17:35:18.041Z,6.87
2019-01-10T17:38:19.403Z,6.05
2019-01-10T17:40:54.532Z,6.17
2019-01-10T17:43:37.235Z,9.40
2019-01-10T17:46:12.072Z,7.87
2019-01-10T17:48:53.180Z,10.32
2019-01-10T17:52:09.585Z,6.10
2019-01-10T17:54:42.377Z,4.65
2019-01-10T17:57:13.487Z,5.70
2019-01-10T17:59:46.289Z,4.95
2019-01-10T18:02:19.049Z,7.45
2019-01-10T18:05:00.601Z,17.57
2019-01-10T18:07:32.215Z,10.18
2019-01-10T18:10:07.064Z,5.80
2019-01-10T18:12:36.266Z,6.03
2019-01-10T18:15:06.495Z,13.32
2019-01-10T18:17:35.558Z,13.50
2019-01-10T18:20:19.256Z,5.90
2019-01-10T18:23:16.622Z,6.20
2019-01-10T18:25:59.576Z,5.25
2019-01-10T18:28:32.420Z,6.50
2019-01-10T18:31:10.541Z,7.53
2019-01-10T18:33:48.401Z,6.55
2019-01-10T18:36:26.289Z,9.05
2019-01-10T18:39:00.979Z,7.22
2019-01-10T18:41:35.730Z,9.75
2019-01-10T18:44:28.613Z,8.65
2019-01-10T18:47:02.242Z,6.37
2019-01-10T18:49:37.000Z,5.58
2019-01-10T18:52:22.411Z,7.80
2019-01-10T18:54:53.399Z,7.37
2019-01-10T18:57:42.195Z,6.83
2019-01-10T19:00:21.419Z,6.10
2019-01-10T19:03:12.313Z,4.70
2019-01-10T19:05:53.851Z,6.12
2019-01-10T19:08:49.260Z,9.35
2019-01-10T19:11:22.465Z,7.20
2019-01-10T19:13:57.543Z,6.17
2019-01-10T19:16:26.961Z,4.37
2019-01-10T19:19:15.780Z,8.35
2019-01-10T19:21:47.383Z,12.68
2019-01-10T19:24:19.103Z,5.87
2019-01-10T19:26:51.408Z,6.75
2019-01-10T19:29:25.446Z,5.72
2019-01-10T19:34:56.856Z,7.10
2019-01-10T19:37:27.426Z,6.83
2019-01-10T19:40:06.454Z,9.25
2019-01-10T19:42:58.944Z,8.83
2019-01-10T19:45:56.046Z,6.03
2019-01-10T19:49:00.821Z,9.20
2019-01-10T19:52:15.561Z,7.95
2019-01-10T19:55:09.753Z,7.62
2019-01-10T19:57:50.631Z,7.22
2019-01-10T20:00:46.723Z,12.35
2019-01-10T20:03:23.801Z,9.33
2019-01-10T20:06:01.872Z,7.15
2019-01-10T20:08:35.140Z,7.95
2019-01-10T20:11:19.740Z,11.18
2019-01-10T20:13:48.830Z,8.88
2019-01-10T20:16:22.021Z,9.03
2019-01-10T20:19:14.437Z,13.35
2019-01-10T20:21:48.823Z,10.13
2019-01-10T20:24:42.386Z,9.23
2019-01-10T20:27:19.648Z,8.70
2019-01-10T20:29:48.209Z,8.35
2019-01-10T20:32:28.229Z,9.75
2019-01-10T20:35:02.471Z,7.80
2019-01-10T20:37:40.431Z,7.67
2019-01-10T20:40:13.665Z,7.95
2019-01-10T20:42:49.624Z,7.12
2019-01-10T20:45:22.571Z,6.97
2019-01-10T20:48:22.165Z,7.20
2019-01-10T20:50:51.773Z,7.05
2019-01-10T20:53:46.409Z,7.33
2019-01-10T20:56:23.658Z,5.50
2019-01-10T20:59:00.178Z,6.95
2019-01-10T21:01:36.590Z,6.80
2019-01-10T21:04:19.359Z,5.78
2019-01-10T21:06:49.608Z,6.97
2019-01-10T21:09:29.949Z,10.45
2019-01-10T21:12:03.575Z,7.25
2019-01-10T21:17:26.762Z,10.35
2019-01-10T21:20:10.944Z,8.70
2019-01-10T21:22:44.455Z,9.10
2019-01-10T21:25:18.623Z,9.90
2019-01-10T21:28:00.076Z,11.40
2019-01-10T21:31:09.035Z,9.38
2019-01-10T21:33:47.595Z,11.75
2019-01-10T21:36:19.700Z,10.08
2019-01-10T21:38:52.366Z,11.33
2019-01-10T21:41:23.436Z,11.88
2019-01-10T21:43:55.305Z,11.10
2019-01-10T21:46:24.749Z,9.93
2019-01-10T21:48:53.976Z,9.50
2019-01-10T21:51:46.699Z,8.70
2019-01-10T21:54:36.573Z,9.33
2019-01-10T21:57:41.650Z,17.98
2019-01-10T22:07:55.881Z,11.93
2019-01-10T22:19:00.454Z,13.15
2019-01-10T22:21:24.261Z,14.83
2019-01-10T22:23:53.718Z,14.40
2019-01-10T22:26:22.764Z,13.85
2019-01-10T22:28:52.100Z,14.75
2019-01-10T22:31:40.756Z,19.15
2019-01-10T22:34:10.232Z,14.98
2019-01-10T22:36:39.393Z,18.95
2019-01-10T22:39:09.062Z,17.32
2019-01-10T22:41:38.270Z,18.40
2019-01-10T22:44:07.592Z,17.92
2019-01-10T22:46:36.680Z,20.32
2019-01-10T22:49:06.128Z,22.45
2019-01-10T22:51:35.247Z,21.02
2019-01-10T22:54:04.685Z,24.43
2019-01-10T22:56:36.598Z,24.92
2019-01-10T22:59:06.070Z,24.23
2019-01-10T23:01:51.885Z,22.42
2019-01-10T23:04:53.804Z,25.43
2019-01-10T23:07:57.101Z,25.02
2019-01-10T23:11:19.472Z,25.35
2019-01-10T23:21:36.218Z,23.10
